Time;durP1;ratioP1;P1;durP2;ratioP2;P2;SDS_P1;SDS_P2;PMS_P1;PMS_P2;Temp;Humidity;BMP_temperature;BMP_pressure;BME280_temperature;BME280_humidity;BME280_pressure;Samples;Min_cycle;Max_cycle;Signal;HPM_P1;HPM_P2
2021/10/02 00:36:46;;;;;;;7.30;5.50;;;15.10;99.90;;;;;;5056315;28;20314;-69
2021/10/02 00:44:37;;;;;;;4.88;4.25;;;15.20;99.90;;;;;;5044081;28;20205;-69
2021/10/02 00:44:47;;;;;;;5.00;4.13;;;15.20;99.90;;;;;;5055991;28;20665;-70
2021/10/02 00:47:17;;;;;;;5.95;3.90;;;15.20;99.90;;;;;;5056428;28;20212;-69
2021/10/02 00:49:45;;;;;;;4.63;4.10;;;15.20;99.90;;;;;;5056213;28;20221;-69
2021/10/02 00:52:15;;;;;;;7.03;4.97;;;15.30;99.90;;;;;;5055788;28;20209;-69
2021/10/02 00:54:42;;;;;;;7.05;4.57;;;15.40;99.90;;;;;;5056166;28;20574;-69
2021/10/02 00:57:09;;;;;;;4.63;4.18;;;15.30;99.90;;;;;;5056184;28;20209;-69
2021/10/02 00:59:37;;;;;;;5.35;4.60;;;15.20;99.90;;;;;;5056009;28;20671;-69
2021/10/02 01:02:13;;;;;;;4.55;3.78;;;15.30;99.90;;;;;;5055795;28;20205;-69
2021/10/02 01:04:52;;;;;;;5.82;3.97;;;15.20;99.90;;;;;;5055878;28;20200;-69
2021/10/02 01:07:26;;;;;;;5.20;4.45;;;15.20;99.90;;;;;;5056027;28;20284;-69
2021/10/02 01:10:10;;;;;;;5.10;4.60;;;15.10;99.90;;;;;;5055769;28;20223;-69
2021/10/02 01:12:44;;;;;;;4.57;4.00;;;14.90;99.90;;;;;;5055548;28;20204;-69
2021/10/02 01:15:14;;;;;;;4.40;4.00;;;14.80;99.90;;;;;;5055658;28;20314;-69
2021/10/02 01:17:54;;;;;;;5.85;4.50;;;14.80;99.90;;;;;;5055813;28;20227;-69
2021/10/02 01:20:30;;;;;;;6.20;4.20;;;14.90;99.90;;;;;;5055311;28;20656;-69
2021/10/02 01:23:13;;;;;;;4.65;4.20;;;15.00;99.90;;;;;;5055511;28;20300;-69
2021/10/02 01:26:06;;;;;;;6.03;4.30;;;15.10;99.90;;;;;;5055305;28;20229;-69
2021/10/02 01:28:37;;;;;;;6.28;4.40;;;15.20;99.90;;;;;;5055568;28;20212;-69
2021/10/02 01:31:10;;;;;;;6.00;5.00;;;15.30;99.90;;;;;;5055289;28;20231;-69
2021/10/02 01:33:43;;;;;;;7.35;5.63;;;15.40;99.90;;;;;;5055395;28;20211;-69
2021/10/02 01:36:29;;;;;;;5.22;4.72;;;15.40;99.90;;;;;;5055515;28;20284;-69
2021/10/02 01:47:16;;;;;;;6.53;4.90;;;15.00;99.90;;;;;;5055173;28;20192;-69
2021/10/02 01:49:46;;;;;;;6.22;5.30;;;15.00;99.90;;;;;;5055122;28;20229;-69
2021/10/02 01:52:15;;;;;;;6.10;5.00;;;15.00;99.90;;;;;;5054827;28;20205;-69
2021/10/02 01:54:43;;;;;;;6.47;5.18;;;15.10;99.90;;;;;;5054911;28;20574;-70
2021/10/02 01:57:11;;;;;;;7.75;5.70;;;15.20;99.90;;;;;;5055135;28;20682;-69
2021/10/02 01:59:41;;;;;;;8.35;6.25;;;15.20;99.90;;;;;;5055019;28;20569;-69
2021/10/02 02:02:10;;;;;;;6.10;5.50;;;15.20;99.90;;;;;;5054698;28;20210;-69
2021/10/02 02:04:41;;;;;;;6.63;5.90;;;15.20;99.90;;;;;;5054591;28;20208;-69
2021/10/02 02:07:09;;;;;;;6.95;5.40;;;15.10;99.90;;;;;;5054858;28;20189;-69
2021/10/02 02:09:40;;;;;;;7.18;5.35;;;15.10;99.90;;;;;;5054750;28;20206;-69
2021/10/02 02:12:11;;;;;;;6.65;5.65;;;15.00;99.90;;;;;;5054618;28;20213;-69
2021/10/02 02:14:42;;;;;;;7.22;5.80;;;14.90;99.90;;;;;;5054596;28;20205;-69
2021/10/02 02:17:11;;;;;;;10.02;5.05;;;14.90;99.90;;;;;;5054779;28;20536;-69
2021/10/02 02:19:39;;;;;;;6.47;5.07;;;14.90;99.90;;;;;;5054569;28;20210;-69
2021/10/02 02:22:06;;;;;;;6.55;4.75;;;14.90;99.90;;;;;;5054089;28;20666;-69
2021/10/02 02:24:34;;;;;;;6.25;5.25;;;14.70;99.90;;;;;;5054194;28;20210;-69
2021/10/02 02:27:03;;;;;;;7.43;5.40;;;14.50;99.90;;;;;;5054539;28;20211;-69
2021/10/02 02:29:32;;;;;;;9.00;6.00;;;14.40;99.90;;;;;;5054265;28;20667;-69
2021/10/02 02:32:01;;;;;;;6.03;5.32;;;14.40;99.90;;;;;;5053384;28;20212;-70
2021/10/02 02:34:29;;;;;;;7.05;5.20;;;14.60;99.90;;;;;;5054352;28;20295;-69
2021/10/02 02:36:56;;;;;;;6.50;4.95;;;14.70;99.90;;;;;;5054532;28;20224;-69
2021/10/02 02:39:23;;;;;;;7.25;5.43;;;14.70;99.90;;;;;;5054259;28;20210;-69
2021/10/02 02:41:50;;;;;;;7.78;5.20;;;14.70;99.90;;;;;;5053943;28;20203;-69
2021/10/02 02:44:17;;;;;;;5.90;5.30;;;14.60;99.90;;;;;;5054133;28;20600;-69
2021/10/02 02:46:47;;;;;;;7.10;5.20;;;14.70;99.90;;;;;;5053759;28;20230;-69
2021/10/02 02:49:20;;;;;;;6.88;5.20;;;14.70;99.90;;;;;;5054549;28;20205;-69
2021/10/02 02:51:59;;;;;;;7.35;5.57;;;14.70;99.90;;;;;;5053768;28;20235;-69
2021/10/02 02:54:32;;;;;;;8.18;6.00;;;14.70;99.90;;;;;;5053999;28;20213;-69
2021/10/02 02:57:07;;;;;;;7.53;6.00;;;14.80;99.90;;;;;;5053692;28;20194;-69
2021/10/02 02:59:38;;;;;;;7.55;6.00;;;14.90;99.90;;;;;;5054541;28;20677;-69
2021/10/02 03:02:07;;;;;;;7.28;5.65;;;15.00;99.90;;;;;;5053541;28;20215;-69
2021/10/02 03:04:37;;;;;;;8.30;5.72;;;15.10;99.90;;;;;;5053717;28;20551;-69
2021/10/02 03:07:08;;;;;;;8.07;5.30;;;15.20;99.90;;;;;;5053518;28;20211;-69
2021/10/02 03:09:40;;;;;;;8.52;5.50;;;15.10;99.90;;;;;;5053650;28;20216;-69
2021/10/02 03:12:09;;;;;;;7.53;5.20;;;14.90;99.90;;;;;;5053590;28;20206;-69
2021/10/02 03:14:38;;;;;;;9.02;6.47;;;14.70;99.90;;;;;;5053346;28;20205;-69
2021/10/02 03:17:07;;;;;;;7.03;6.03;;;14.60;99.90;;;;;;5053705;28;20204;-69
2021/10/02 03:19:37;;;;;;;7.10;5.30;;;14.50;99.90;;;;;;5053507;28;20208;-69
2021/10/02 03:22:07;;;;;;;6.10;5.50;;;14.60;99.90;;;;;;5053277;28;20207;-69
2021/10/02 03:24:36;;;;;;;7.60;5.65;;;14.60;99.90;;;;;;5053543;28;20241;-69
2021/10/02 03:27:04;;;;;;;8.15;5.25;;;14.70;99.90;;;;;;5053650;28;20219;-69
2021/10/02 03:29:31;;;;;;;6.43;5.22;;;14.70;99.90;;;;;;5053359;28;20214;-69
2021/10/02 03:31:59;;;;;;;8.25;6.05;;;14.80;99.90;;;;;;5053029;28;20227;-69
2021/10/02 03:34:26;;;;;;;9.13;6.63;;;14.80;99.90;;;;;;5053420;28;20243;-69
2021/10/02 03:36:54;;;;;;;8.18;6.10;;;14.90;99.90;;;;;;5053173;28;20311;-69
2021/10/02 03:39:21;;;;;;;7.28;5.90;;;14.80;99.90;;;;;;5053208;28;20296;-69
2021/10/02 03:42:03;;;;;;;6.95;5.47;;;14.90;99.90;;;;;;5054232;28;20292;-69
2021/10/02 03:44:30;;;;;;;5.53;4.90;;;14.90;99.90;;;;;;5057550;28;20296;-69
2021/10/02 03:46:57;;;;;;;6.68;5.47;;;14.80;99.90;;;;;;5057232;28;20311;-69
2021/10/02 03:49:24;;;;;;;7.60;5.50;;;14.80;99.90;;;;;;5057451;28;20209;-69
2021/10/02 03:51:51;;;;;;;6.43;4.72;;;14.80;99.90;;;;;;5057174;28;20235;-69
2021/10/02 03:54:19;;;;;;;8.90;6.13;;;14.80;99.90;;;;;;5057344;28;20212;-69
2021/10/02 03:56:45;;;;;;;7.32;5.65;;;14.80;99.90;;;;;;5056985;28;20613;-69
2021/10/02 03:59:12;;;;;;;6.80;5.47;;;14.90;99.90;;;;;;5057270;28;20231;-69
2021/10/02 04:01:39;;;;;;;5.47;4.93;;;14.90;99.90;;;;;;5056903;28;20296;-69
2021/10/02 04:04:06;;;;;;;8.10;6.13;;;14.90;99.90;;;;;;5057196;28;20296;-69
2021/10/02 04:06:33;;;;;;;8.68;5.90;;;14.90;99.90;;;;;;5057082;28;20625;-69
2021/10/02 04:09:00;;;;;;;6.63;5.95;;;14.90;99.90;;;;;;5056946;28;20209;-69
2021/10/02 04:11:30;;;;;;;9.32;5.90;;;14.80;99.90;;;;;;5056647;28;20228;-69
2021/10/02 04:13:57;;;;;;;8.25;5.35;;;14.80;99.90;;;;;;5056949;28;20539;-69
2021/10/02 04:16:24;;;;;;;6.00;5.35;;;14.70;99.90;;;;;;5056932;28;20308;-69
2021/10/02 04:18:51;;;;;;;7.35;5.75;;;14.50;99.90;;;;;;5056683;28;20666;-69
2021/10/02 04:21:18;;;;;;;10.23;5.65;;;14.30;99.90;;;;;;5056608;28;20196;-69
2021/10/02 04:23:45;;;;;;;7.82;6.07;;;14.10;99.90;;;;;;5056712;28;20303;-69
2021/10/02 04:26:12;;;;;;;6.90;5.47;;;14.00;99.90;;;;;;5056634;28;20346;-69
2021/10/02 04:28:40;;;;;;;7.60;6.00;;;13.90;99.90;;;;;;5056737;28;20235;-69
2021/10/02 04:31:07;;;;;;;6.63;5.28;;;13.90;99.90;;;;;;5056464;28;20580;-69
2021/10/02 04:33:33;;;;;;;9.18;5.93;;;14.00;99.90;;;;;;5056632;28;20204;-69
2021/10/02 04:36:00;;;;;;;6.38;5.25;;;14.10;99.90;;;;;;5056298;28;20256;-69
2021/10/02 04:38:27;;;;;;;7.22;5.60;;;14.20;99.90;;;;;;5056514;28;20203;-69
2021/10/02 04:40:54;;;;;;;7.03;5.78;;;14.40;99.90;;;;;;5056454;28;20291;-69
2021/10/02 04:43:21;;;;;;;7.70;6.22;;;14.40;99.90;;;;;;5056000;28;20259;-69
2021/10/02 04:45:49;;;;;;;6.97;5.55;;;14.50;99.90;;;;;;5056064;28;20263;-69
2021/10/02 04:48:16;;;;;;;8.02;5.88;;;14.50;99.90;;;;;;5056122;28;20216;-69
2021/10/02 04:50:43;;;;;;;8.00;6.20;;;14.50;99.90;;;;;;5056230;28;20221;-69
2021/10/02 04:53:10;;;;;;;8.10;5.88;;;14.50;99.90;;;;;;5055291;28;20298;-69
2021/10/02 04:55:39;;;;;;;7.53;5.60;;;14.50;99.90;;;;;;5056023;28;20228;-69
2021/10/02 04:58:06;;;;;;;9.07;6.32;;;14.60;99.90;;;;;;5056167;28;20204;-69
2021/10/02 05:00:33;;;;;;;7.57;5.90;;;14.50;99.90;;;;;;5056149;28;20566;-69
2021/10/02 05:03:03;;;;;;;7.55;5.60;;;14.50;99.90;;;;;;5055960;28;20200;-69
2021/10/02 05:05:30;;;;;;;8.32;5.45;;;14.40;99.90;;;;;;5056319;28;20228;-69
2021/10/02 05:07:57;;;;;;;6.65;5.38;;;14.40;99.90;;;;;;5056063;28;20290;-69
2021/10/02 05:10:24;;;;;;;7.30;5.97;;;14.30;99.90;;;;;;5055752;28;20200;-69
2021/10/02 05:12:51;;;;;;;7.88;5.72;;;14.20;99.90;;;;;;5055749;28;20207;-69
2021/10/02 05:15:18;;;;;;;8.63;6.05;;;14.20;99.90;;;;;;5055562;28;20223;-69
2021/10/02 05:17:44;;;;;;;8.73;5.47;;;14.10;99.90;;;;;;5055820;28;20290;-69
2021/10/02 05:20:13;;;;;;;7.88;6.43;;;14.10;99.90;;;;;;5055625;28;20299;-69
2021/10/02 05:22:40;;;;;;;8.63;6.13;;;14.10;99.90;;;;;;5055327;28;20206;-69
2021/10/02 05:25:07;;;;;;;6.35;5.35;;;14.10;99.90;;;;;;5055370;28;20240;-69
2021/10/02 05:27:34;;;;;;;7.78;5.50;;;14.10;99.90;;;;;;5055578;28;20204;-69
2021/10/02 05:30:01;;;;;;;8.68;5.22;;;14.20;99.90;;;;;;5055532;28;20570;-69
2021/10/02 05:32:28;;;;;;;6.93;5.50;;;14.10;99.90;;;;;;5055272;28;20228;-69
2021/10/02 05:34:55;;;;;;;7.65;5.82;;;14.20;99.90;;;;;;5055441;28;20614;-69
2021/10/02 05:37:23;;;;;;;8.27;5.25;;;14.20;99.90;;;;;;5055397;28;20200;-69
2021/10/02 05:39:50;;;;;;;7.85;6.20;;;14.10;99.90;;;;;;5055270;28;20664;-69
2021/10/02 05:42:17;;;;;;;9.50;6.13;;;14.00;99.90;;;;;;5055205;28;20199;-69
2021/10/02 05:44:44;;;;;;;6.60;5.65;;;14.00;99.90;;;;;;5054941;28;20204;-69
2021/10/02 05:47:11;;;;;;;7.95;6.20;;;14.10;99.90;;;;;;5055362;28;20203;-69
2021/10/02 05:49:37;;;;;;;7.65;5.45;;;14.10;99.90;;;;;;5054999;28;20199;-69
2021/10/02 05:52:06;;;;;;;8.98;5.85;;;14.20;99.90;;;;;;5054795;28;20415;-69
2021/10/02 05:54:34;;;;;;;7.90;6.10;;;14.30;99.90;;;;;;5054869;28;20260;-69
2021/10/02 05:57:01;;;;;;;6.78;5.65;;;14.40;99.90;;;;;;5055111;28;20212;-69
2021/10/02 05:59:28;;;;;;;9.52;7.00;;;14.50;99.90;;;;;;5054864;28;20214;-69
2021/10/02 06:01:54;;;;;;;8.00;6.10;;;14.50;99.90;;;;;;5054757;28;20200;-69
2021/10/02 06:04:21;;;;;;;8.95;6.25;;;14.50;99.90;;;;;;5054723;28;20296;-70
2021/10/02 06:06:48;;;;;;;7.45;6.60;;;14.60;99.90;;;;;;5053676;28;20228;-69
2021/10/02 06:09:15;;;;;;;9.65;7.32;;;14.60;99.90;;;;;;5054824;28;20297;-69
2021/10/02 06:11:43;;;;;;;8.82;6.28;;;14.70;99.90;;;;;;5054316;28;20226;-69
2021/10/02 06:14:10;;;;;;;9.32;6.72;;;14.80;99.90;;;;;;5054600;28;20237;-69
2021/10/02 06:16:38;;;;;;;9.73;7.20;;;14.70;99.90;;;;;;5054635;28;20252;-69
2021/10/02 06:19:05;;;;;;;8.98;6.88;;;14.60;99.90;;;;;;5054545;28;20594;-69
2021/10/02 06:21:32;;;;;;;9.55;7.00;;;14.60;99.90;;;;;;5054442;28;20223;-69
2021/10/02 06:24:00;;;;;;;8.75;6.40;;;14.60;99.90;;;;;;5054351;28;20207;-69
2021/10/02 06:26:27;;;;;;;6.80;6.00;;;14.50;99.90;;;;;;5054118;28;20450;-69
2021/10/02 06:28:56;;;;;;;10.13;6.32;;;14.50;99.90;;;;;;5054423;28;20287;-69
2021/10/02 06:31:23;;;;;;;8.70;6.47;;;14.50;99.90;;;;;;5054094;28;20219;-69
2021/10/02 06:33:51;;;;;;;7.00;6.05;;;14.50;99.90;;;;;;5054269;28;20296;-69
2021/10/02 06:36:18;;;;;;;10.63;7.60;;;14.50;99.90;;;;;;5054263;28;20219;-69
2021/10/02 06:38:45;;;;;;;7.38;5.97;;;14.50;99.90;;;;;;5054236;28;20206;-69
2021/10/02 06:41:12;;;;;;;7.75;6.70;;;14.50;99.90;;;;;;5054034;28;20213;-69
2021/10/02 06:43:38;;;;;;;7.70;6.07;;;14.50;99.90;;;;;;5054071;28;20668;-69
2021/10/02 06:46:07;;;;;;;7.65;6.68;;;14.50;99.90;;;;;;5053885;28;20232;-69
2021/10/02 06:48:33;;;;;;;9.48;7.05;;;14.60;99.90;;;;;;5054099;28;20682;-69
2021/10/02 06:51:00;;;;;;;7.60;6.30;;;14.80;99.90;;;;;;5053590;28;20237;-69
2021/10/02 06:53:27;;;;;;;7.18;6.35;;;14.80;99.90;;;;;;5054007;28;20303;-69
2021/10/02 06:55:54;;;;;;;10.93;7.05;;;14.90;99.90;;;;;;5053892;28;20220;-69
2021/10/02 06:58:21;;;;;;;8.95;6.88;;;14.90;99.90;;;;;;5053975;28;20296;-69
2021/10/02 07:00:47;;;;;;;12.93;8.35;;;14.90;99.90;;;;;;5053815;28;20604;-69
2021/10/02 07:03:16;;;;;;;7.40;6.50;;;14.90;99.90;;;;;;5053456;28;20291;-69
2021/10/02 07:05:42;;;;;;;7.43;6.45;;;14.90;99.90;;;;;;5053503;28;20237;-69
2021/10/02 07:08:09;;;;;;;7.78;6.75;;;15.00;99.90;;;;;;5053771;28;20211;-69
2021/10/02 07:10:36;;;;;;;9.65;7.28;;;15.10;99.90;;;;;;5053789;28;20720;-69
2021/10/02 07:13:03;;;;;;;7.90;6.25;;;15.20;99.90;;;;;;5053395;28;20230;-67
2021/10/02 07:15:30;;;;;;;7.63;6.78;;;15.30;99.90;;;;;;5053515;28;20230;-67
2021/10/02 07:17:57;;;;;;;9.00;6.70;;;15.20;99.90;;;;;;5053301;28;20641;-67
2021/10/02 07:20:27;;;;;;;9.10;7.18;;;15.20;99.90;;;;;;5053415;28;20296;-67
2021/10/02 07:22:54;;;;;;;11.63;8.05;;;15.30;99.90;;;;;;5053421;28;20620;-67
2021/10/02 07:25:24;;;;;;;7.43;6.50;;;15.30;99.90;;;;;;5053229;28;20598;-67
2021/10/02 07:27:52;;;;;;;9.30;7.18;;;15.20;99.90;;;;;;5053593;28;20191;-67
2021/10/02 07:30:19;;;;;;;8.75;6.68;;;15.20;99.90;;;;;;5053502;28;20206;-67
2021/10/02 07:32:47;;;;;;;9.07;6.93;;;15.20;99.90;;;;;;5053271;28;20321;-67
2021/10/02 07:35:15;;;;;;;9.07;7.03;;;15.40;99.90;;;;;;5053439;28;20592;-67
2021/10/02 07:37:44;;;;;;;12.02;7.45;;;15.50;99.90;;;;;;5053529;28;20237;-67
2021/10/02 07:40:13;;;;;;;8.50;6.90;;;15.50;99.90;;;;;;5053322;28;20207;-67
2021/10/02 07:42:45;;;;;;;8.27;6.97;;;15.50;99.90;;;;;;5053112;28;20687;-67
2021/10/02 07:45:12;;;;;;;8.40;6.43;;;15.60;99.90;;;;;;5053321;28;20226;-68
2021/10/02 07:47:42;;;;;;;7.85;6.43;;;15.60;99.90;;;;;;5053372;28;20299;-68
2021/10/02 07:50:10;;;;;;;9.00;6.55;;;15.60;99.90;;;;;;5053229;28;20205;-67
2021/10/02 07:52:38;;;;;;;7.93;6.70;;;15.60;99.90;;;;;;5052918;28;20236;-67
2021/10/02 07:55:09;;;;;;;8.20;6.35;;;15.40;99.90;;;;;;5053211;28;20232;-68
2021/10/02 07:57:36;;;;;;;9.13;6.78;;;15.30;99.90;;;;;;5053311;28;20293;-67
2021/10/02 08:00:05;;;;;;;7.63;6.47;;;15.30;99.90;;;;;;5053221;28;20212;-67
2021/10/02 08:02:32;;;;;;;7.82;6.47;;;15.30;99.90;;;;;;5053015;28;20197;-68
2021/10/02 08:05:01;;;;;;;7.25;6.03;;;15.40;99.90;;;;;;5052962;28;20725;-68
2021/10/02 08:07:29;;;;;;;8.25;6.78;;;15.40;99.90;;;;;;5053156;28;20300;-67
2021/10/02 08:09:56;;;;;;;6.40;5.75;;;15.30;99.90;;;;;;5053786;28;20214;-67
2021/10/02 08:12:24;;;;;;;7.53;6.82;;;15.20;99.90;;;;;;5052877;28;20225;-67
2021/10/02 08:14:51;;;;;;;7.28;6.20;;;15.20;99.90;;;;;;5053049;28;20203;-67
2021/10/02 08:17:22;;;;;;;7.90;6.68;;;15.20;99.90;;;;;;5053157;28;20316;-67
2021/10/02 08:19:55;;;;;;;6.38;5.78;;;15.30;99.90;;;;;;5052981;28;20738;-68
2021/10/02 08:22:23;;;;;;;10.30;7.10;;;15.30;99.90;;;;;;5052893;28;20565;-67
2021/10/02 08:24:52;;;;;;;7.80;5.78;;;15.30;99.90;;;;;;5052848;28;20214;-68
2021/10/02 08:27:19;;;;;;;9.50;6.55;;;15.30;99.90;;;;;;5052980;28;20202;-67
2021/10/02 08:29:49;;;;;;;10.35;6.95;;;15.40;99.90;;;;;;5055478;28;20206;-67
2021/10/02 08:32:17;;;;;;;10.05;6.78;;;15.40;99.90;;;;;;5056293;28;20225;-67
2021/10/02 08:34:44;;;;;;;6.80;5.72;;;15.60;99.90;;;;;;5056551;28;20617;-68
2021/10/02 08:37:11;;;;;;;8.90;6.50;;;15.70;99.90;;;;;;5056644;28;20297;-67
2021/10/02 08:39:38;;;;;;;7.55;5.50;;;15.80;99.90;;;;;;5056566;28;20648;-67
2021/10/02 08:42:05;;;;;;;5.15;4.50;;;15.90;99.90;;;;;;5056211;28;20573;-68
2021/10/02 08:44:33;;;;;;;7.78;5.45;;;16.10;99.90;;;;;;5056421;28;20217;-68
2021/10/02 08:47:03;;;;;;;6.47;5.75;;;16.30;99.90;;;;;;5056280;28;20224;-68
2021/10/02 08:49:44;;;;;;;7.05;5.63;;;16.30;99.90;;;;;;5056395;28;20662;-67
2021/10/02 08:52:11;;;;;;;8.98;6.55;;;16.40;99.90;;;;;;5055932;28;20232;-68
2021/10/02 08:54:40;;;;;;;5.50;4.95;;;16.40;99.90;;;;;;5056033;28;20210;-67
2021/10/02 08:57:09;;;;;;;6.28;5.38;;;16.50;99.90;;;;;;5056318;28;20200;-68
2021/10/02 08:59:37;;;;;;;6.78;5.20;;;16.50;99.90;;;;;;5056101;28;20206;-68
2021/10/02 09:02:07;;;;;;;5.60;4.95;;;16.60;99.90;;;;;;5055998;28;20245;-68
2021/10/02 09:04:35;;;;;;;5.68;5.10;;;16.60;99.90;;;;;;5055935;28;20207;-68
2021/10/02 09:07:03;;;;;;;6.95;4.25;;;16.70;99.90;;;;;;5056091;28;20203;-68
2021/10/02 09:09:30;;;;;;;5.95;5.07;;;16.80;99.90;;;;;;5055772;28;20214;-68
2021/10/02 09:11:57;;;;;;;5.15;4.05;;;16.90;99.90;;;;;;5055562;28;20215;-69
2021/10/02 09:14:24;;;;;;;4.85;4.25;;;17.00;99.90;;;;;;5056806;28;20598;-69
2021/10/02 09:16:52;;;;;;;5.05;4.45;;;17.10;99.90;;;;;;5055659;28;20227;-69
2021/10/02 09:19:20;;;;;;;7.25;3.50;;;17.10;99.90;;;;;;5056479;28;20599;-69
2021/10/02 09:21:58;;;;;;;2.85;2.55;;;17.20;99.90;;;;;;5055778;28;20225;-69
2021/10/02 09:24:26;;;;;;;3.45;2.70;;;17.30;99.90;;;;;;5055670;28;20199;-69
2021/10/02 09:26:53;;;;;;;2.90;2.13;;;17.50;99.90;;;;;;5055790;28;20266;-69
2021/10/02 09:29:35;;;;;;;2.60;2.35;;;17.50;99.90;;;;;;5055734;28;20199;-69
2021/10/02 09:32:02;;;;;;;3.25;2.00;;;17.70;99.90;;;;;;5055854;28;20227;-69
2021/10/02 09:34:30;;;;;;;19.00;11.25;;;17.80;99.90;;;;;;5055969;28;20203;-69
2021/10/02 09:36:57;;;;;;;3.25;2.95;;;17.80;99.90;;;;;;5055769;28;20646;-69
2021/10/02 09:39:39;;;;;;;3.15;2.65;;;17.90;99.90;;;;;;5055495;28;20622;-69
2021/10/02 09:42:20;;;;;;;2.67;2.47;;;18.00;99.90;;;;;;5055388;28;20195;-70
2021/10/02 09:44:46;;;;;;;3.38;2.72;;;18.00;99.90;;;;;;5055919;28;20665;-69
2021/10/02 09:47:15;;;;;;;2.50;2.30;;;18.00;99.90;;;;;;5056026;28;20562;-69
2021/10/02 09:49:43;;;;;;;2.67;2.35;;;18.10;99.90;;;;;;5049988;28;20203;-72
2021/10/02 09:52:29;;;;;;;3.00;2.30;;;18.10;99.90;;;;;;5061839;28;20227;-69
2021/10/02 09:54:56;;;;;;;2.60;2.40;;;18.20;99.90;;;;;;5054146;28;20305;-71
2021/10/02 09:57:23;;;;;;;3.22;2.92;;;18.20;99.90;;;;;;5053729;28;20290;-70
2021/10/02 09:59:51;;;;;;;3.08;2.40;;;18.40;99.90;;;;;;5053604;28;20622;-71
2021/10/02 10:02:19;;;;;;;2.75;2.38;;;18.50;99.70;;;;;;5053057;28;20210;-71
2021/10/02 10:04:55;;;;;;;2.60;2.40;;;18.60;99.80;;;;;;5053487;28;20232;-72
2021/10/02 10:07:22;;;;;;;4.65;3.08;;;18.80;99.80;;;;;;5053953;28;20541;-72
2021/10/02 10:10:07;;;;;;;3.08;2.45;;;18.90;98.40;;;;;;5053738;28;20196;-73
2021/10/02 10:12:35;;;;;;;3.10;2.80;;;19.10;99.00;;;;;;5052859;28;20302;-72
2021/10/02 10:15:02;;;;;;;3.40;2.90;;;19.10;99.90;;;;;;5053290;28;20522;-72
2021/10/02 10:17:32;;;;;;;2.57;2.37;;;19.20;99.20;;;;;;5053712;28;20451;-72
2021/10/02 10:20:09;;;;;;;3.70;2.93;;;19.20;99.40;;;;;;5053576;28;20496;-72
2021/10/02 10:22:37;;;;;;;3.00;2.70;;;19.30;99.80;;;;;;5052897;28;20451;-73
2021/10/02 10:25:07;;;;;;;2.77;2.47;;;19.40;97.70;;;;;;5052792;28;20243;-71
2021/10/02 10:27:39;;;;;;;2.90;2.67;;;19.50;97.80;;;;;;5053469;28;20458;-72
2021/10/02 10:30:10;;;;;;;3.43;3.13;;;19.60;98.70;;;;;;5053458;28;20896;-73
2021/10/02 10:32:38;;;;;;;14.37;12.87;;;19.70;98.00;;;;;;5052483;28;20529;-73
2021/10/02 10:35:08;;;;;;;18.00;12.90;;;19.90;98.10;;;;;;5052754;28;20474;-72
2021/10/02 10:37:34;;;;;;;4.40;4.10;;;19.90;97.40;;;;;;5053009;28;20534;-71
2021/10/02 10:40:01;;;;;;;5.80;5.30;;;20.00;98.00;;;;;;5053300;28;20459;-71
2021/10/02 10:42:30;;;;;;;9.00;7.87;;;20.00;98.10;;;;;;5052521;28;20934;-71
2021/10/02 10:44:58;;;;;;;13.70;9.63;;;20.10;97.90;;;;;;5052798;28;20551;-70
2021/10/02 10:47:26;;;;;;;11.70;8.27;;;20.10;98.70;;;;;;5052631;28;20461;-70
2021/10/02 10:49:53;;;;;;;4.90;3.80;;;20.20;98.80;;;;;;5052501;28;20479;-71
2021/10/02 10:52:22;;;;;;;4.53;3.67;;;20.40;97.30;;;;;;5051623;28;20999;-72
2021/10/02 10:54:51;;;;;;;4.10;2.87;;;20.90;96.00;;;;;;5052860;28;20911;-71
2021/10/02 10:57:35;;;;;;;3.10;2.80;;;21.20;94.50;;;;;;5052614;28;20816;-71
2021/10/02 11:00:02;;;;;;;3.17;2.87;;;21.50;93.60;;;;;;5052894;28;20450;-71
2021/10/02 11:02:47;;;;;;;3.17;2.87;;;21.80;92.90;;;;;;5052142;28;20822;-72
2021/10/02 11:05:48;;;;;;;3.27;3.00;;;22.20;92.90;;;;;;5052874;28;20466;-72
2021/10/02 11:08:21;;;;;;;3.13;2.90;;;22.40;91.80;;;;;;5052994;28;20537;-72
2021/10/02 11:10:51;;;;;;;3.40;3.10;;;22.60;91.70;;;;;;5052497;28;20932;-73
2021/10/02 11:13:19;;;;;;;2.90;2.43;;;22.80;91.70;;;;;;5052287;28;20484;-72
2021/10/02 11:15:48;;;;;;;3.03;2.47;;;23.00;89.20;;;;;;5052390;28;20506;-72
2021/10/02 11:18:45;;;;;;;2.90;2.63;;;23.60;88.30;;;;;;5052312;28;20472;-72
2021/10/02 11:21:13;;;;;;;3.67;3.30;;;24.20;85.00;;;;;;5050668;28;20532;-72
2021/10/02 11:24:07;;;;;;;3.03;2.83;;;24.70;82.70;;;;;;5052278;28;20520;-72
2021/10/02 11:26:41;;;;;;;4.60;4.03;;;24.90;84.00;;;;;;5051943;28;20477;-73
2021/10/02 11:29:31;;;;;;;4.57;4.17;;;25.00;82.80;;;;;;5052192;28;20453;-72
2021/10/02 11:32:29;;;;;;;3.40;3.10;;;24.80;81.10;;;;;;5052291;28;20449;-72
2021/10/02 11:35:19;;;;;;;3.90;3.40;;;24.50;82.90;;;;;;5052836;28;20540;-72
2021/10/02 11:37:50;;;;;;;4.73;3.80;;;24.00;85.00;;;;;;5048400;28;20488;-72
2021/10/02 11:40:51;;;;;;;3.37;2.87;;;23.80;87.00;;;;;;5052497;28;20810;-72
2021/10/02 11:43:23;;;;;;;4.23;3.80;;;23.50;90.00;;;;;;5041266;28;20455;-73
2021/10/02 11:45:59;;;;;;;3.50;3.07;;;23.60;89.60;;;;;;5052687;28;20463;-72
2021/10/02 11:48:38;;;;;;;3.30;3.00;;;24.10;88.70;;;;;;5052318;28;20484;-72
2021/10/02 11:51:34;;;;;;;4.90;3.53;;;24.90;86.20;;;;;;5052492;28;21007;-72
2021/10/02 11:54:13;;;;;;;3.40;3.10;;;25.40;83.30;;;;;;5052761;28;20880;-71
2021/10/02 11:56:42;;;;;;;3.53;3.07;;;25.90;81.40;;;;;;5052237;28;20548;-71
2021/10/02 11:59:10;;;;;;;3.67;3.27;;;26.30;80.90;;;;;;5052587;28;20438;-73
2021/10/02 12:01:42;;;;;;;3.63;3.30;;;26.60;74.40;;;;;;5052536;28;20452;-72
2021/10/02 12:04:11;;;;;;;2.93;2.73;;;26.70;75.80;;;;;;5055881;28;20442;-72
2021/10/02 12:06:40;;;;;;;4.20;3.03;;;26.80;74.30;;;;;;5056516;28;20469;-72
2021/10/02 12:09:11;;;;;;;3.50;3.20;;;26.90;73.10;;;;;;5056525;28;20758;-72
2021/10/02 12:11:45;;;;;;;3.33;3.03;;;26.60;69.20;;;;;;5056668;28;20479;-73
2021/10/02 12:14:14;;;;;;;6.97;5.90;;;26.50;70.10;;;;;;5056700;28;20485;-72
2021/10/02 12:16:41;;;;;;;6.17;5.57;;;26.00;68.90;;;;;;5056601;28;20477;-72
2021/10/02 12:19:09;;;;;;;3.57;3.27;;;25.80;71.70;;;;;;5056398;28;20449;-72
2021/10/02 12:21:47;;;;;;;2.83;2.63;;;25.40;71.20;;;;;;5055747;28;20453;-72
2021/10/02 12:24:17;;;;;;;3.37;2.90;;;25.00;75.20;;;;;;5056205;28;20454;-72
2021/10/02 12:26:55;;;;;;;3.40;2.80;;;24.60;71.20;;;;;;5055755;28;20466;-73
2021/10/02 12:29:23;;;;;;;3.10;2.80;;;24.30;72.70;;;;;;5055483;28;20448;-73
2021/10/02 12:32:11;;;;;;;3.47;3.17;;;24.20;75.80;;;;;;5055715;28;20576;-73
2021/10/02 12:34:42;;;;;;;3.03;2.50;;;24.10;77.40;;;;;;5050438;28;20499;-74
2021/10/02 12:37:11;;;;;;;3.30;3.00;;;24.00;77.80;;;;;;5055498;28;20539;-74
2021/10/02 12:39:42;;;;;;;3.37;2.53;;;23.80;78.20;;;;;;5054109;28;20447;-74
2021/10/02 12:42:13;;;;;;;2.70;2.50;;;23.70;76.60;;;;;;5055392;28;20451;-73
2021/10/02 12:44:42;;;;;;;3.30;2.93;;;23.60;79.00;;;;;;5055729;28;20447;-72
2021/10/02 12:47:10;;;;;;;3.47;3.17;;;23.30;78.40;;;;;;5055495;28;20448;-72
2021/10/02 12:49:43;;;;;;;3.00;2.70;;;23.20;78.30;;;;;;5055049;28;20445;-72
2021/10/02 12:52:11;;;;;;;2.70;2.50;;;23.10;81.60;;;;;;5055425;28;21008;-72
2021/10/02 12:54:42;;;;;;;3.87;3.47;;;23.00;80.00;;;;;;5055021;28;21022;-73
2021/10/02 12:57:14;;;;;;;2.90;2.70;;;23.00;83.50;;;;;;5055723;28;20813;-75
2021/10/02 12:59:50;;;;;;;4.00;3.63;;;23.00;84.50;;;;;;5055165;28;20453;-75
2021/10/02 13:02:20;;;;;;;2.97;2.77;;;23.00;83.80;;;;;;5055176;28;20442;-73
2021/10/02 13:04:47;;;;;;;3.03;2.40;;;23.10;82.60;;;;;;5055162;28;20446;-71
2021/10/02 13:07:24;;;;;;;3.07;2.80;;;23.10;85.00;;;;;;5054858;28;20450;-72
2021/10/02 13:10:04;;;;;;;2.70;2.50;;;23.30;81.30;;;;;;5055088;28;20804;-72
2021/10/02 13:12:37;;;;;;;2.70;2.50;;;23.30;79.60;;;;;;5054940;28;20450;-71
2021/10/02 13:15:08;;;;;;;2.77;2.57;;;23.40;79.70;;;;;;5054081;28;20485;-71
2021/10/02 13:17:34;;;;;;;2.93;2.67;;;23.20;82.80;;;;;;5054778;28;20449;-71
2021/10/02 13:20:17;;;;;;;4.20;3.80;;;23.30;79.20;;;;;;5054536;28;20534;-71
2021/10/02 13:22:47;;;;;;;2.80;2.57;;;23.40;81.40;;;;;;5054795;28;20508;-70
2021/10/02 13:25:20;;;;;;;2.93;2.73;;;23.50;80.00;;;;;;5054620;28;20559;-71
2021/10/02 13:27:50;;;;;;;2.90;2.70;;;23.60;82.40;;;;;;5054676;28;20446;-69
2021/10/02 13:30:19;;;;;;;2.33;2.23;;;23.60;80.50;;;;;;5054458;28;20940;-70
2021/10/02 13:32:57;;;;;;;2.60;2.40;;;23.70;79.80;;;;;;5054612;28;20452;-69
2021/10/02 13:35:26;;;;;;;2.80;2.60;;;23.70;76.80;;;;;;5054288;28;21059;-70
2021/10/02 13:37:53;;;;;;;3.40;2.63;;;23.70;76.90;;;;;;5054369;28;20453;-70
2021/10/02 13:40:23;;;;;;;4.17;3.30;;;23.70;79.10;;;;;;5054445;28;20472;-72
2021/10/02 13:42:52;;;;;;;3.10;2.90;;;23.80;79.90;;;;;;5054010;28;20458;-71
2021/10/02 13:45:30;;;;;;;3.37;3.07;;;23.70;79.50;;;;;;5054257;28;20460;-74
2021/10/02 13:48:00;;;;;;;2.77;2.57;;;23.70;81.40;;;;;;5054359;28;20543;-73